createdAt,value
2019-03-23T00:00:50.523Z,65.70
2019-03-23T00:03:20.546Z,62.63
2019-03-23T00:05:50.605Z,57.40
2019-03-23T00:08:20.650Z,43.07
2019-03-23T00:10:50.730Z,59.10
2019-03-23T00:13:20.778Z,58.97
2019-03-23T00:15:50.886Z,52.40
2019-03-23T00:18:20.953Z,57.27
2019-03-23T00:20:50.985Z,44.47
2019-03-23T00:23:21.107Z,46.63
2019-03-23T00:25:51.230Z,38.10
2019-03-23T00:28:21.306Z,35.20
2019-03-23T00:30:51.408Z,34.17
2019-03-23T00:33:21.648Z,39.53
2019-03-23T00:35:51.651Z,38.80
2019-03-23T00:38:21.795Z,46.73
2019-03-23T00:40:51.853Z,35.20
2019-03-23T00:43:21.940Z,46.67
2019-03-23T00:45:52.042Z,46.83
2019-03-23T00:48:22.155Z,49.83
2019-03-23T00:50:52.190Z,45.10
2019-03-23T00:53:22.223Z,34.83
2019-03-23T00:55:52.302Z,30.37
2019-03-23T00:58:22.342Z,33.87
2019-03-23T01:00:52.498Z,44.20
2019-03-23T01:03:22.530Z,49.00
2019-03-23T01:05:52.618Z,49.73
2019-03-23T01:08:22.671Z,37.23
2019-03-23T01:10:52.765Z,53.40
2019-03-23T01:13:22.826Z,50.77
2019-03-23T01:15:52.893Z,45.07
2019-03-23T01:18:22.968Z,55.20
2019-03-23T01:20:52.994Z,56.23
2019-03-23T01:23:23.081Z,44.23
2019-03-23T01:25:53.162Z,60.67
2019-03-23T01:28:23.224Z,53.37
2019-03-23T01:30:53.292Z,62.23
2019-03-23T01:33:23.346Z,64.50
2019-03-23T01:35:53.387Z,68.20
2019-03-23T01:38:23.455Z,62.13
2019-03-23T01:40:53.522Z,55.20
2019-03-23T01:43:23.581Z,58.07
2019-03-23T01:45:53.657Z,58.23
2019-03-23T01:48:23.718Z,47.57
2019-03-23T01:50:53.772Z,46.43
2019-03-23T01:53:23.833Z,38.60
2019-03-23T01:55:53.906Z,43.70
2019-03-23T01:58:23.967Z,37.93
2019-03-23T02:00:54.021Z,35.80
2019-03-23T02:03:24.105Z,46.40
2019-03-23T02:05:54.138Z,38.83
2019-03-23T02:08:24.223Z,47.03
2019-03-23T02:10:54.232Z,48.80
2019-03-23T02:13:24.296Z,47.37
2019-03-23T02:15:54.304Z,47.30
2019-03-23T02:18:24.405Z,40.83
2019-03-23T02:20:56.390Z,41.60
2019-03-23T02:23:26.427Z,41.50
2019-03-23T02:25:56.489Z,43.00
2019-03-23T02:28:26.557Z,41.03
2019-03-23T02:30:56.627Z,36.83
2019-03-23T02:33:26.675Z,37.10
2019-03-23T02:35:56.730Z,39.93
2019-03-23T02:38:26.802Z,38.90
2019-03-23T02:40:56.874Z,47.40
2019-03-23T02:43:26.931Z,42.77
2019-03-23T02:45:57.032Z,39.30
2019-03-23T02:48:27.111Z,36.43
2019-03-23T02:50:57.149Z,34.03
2019-03-23T02:53:27.189Z,35.10
2019-03-23T02:55:57.235Z,29.27
2019-03-23T02:58:27.300Z,33.30
2019-03-23T03:00:57.372Z,29.87
2019-03-23T03:03:27.399Z,28.73
2019-03-23T03:05:57.503Z,33.43
2019-03-23T03:08:27.578Z,31.60
2019-03-23T03:10:57.602Z,33.77
2019-03-23T03:13:27.706Z,23.53
2019-03-23T03:15:57.733Z,38.47
2019-03-23T03:18:27.797Z,29.80
2019-03-23T03:20:57.836Z,31.77
2019-03-23T03:23:27.891Z,30.83
2019-03-23T03:25:58.051Z,36.87
2019-03-23T03:28:28.029Z,23.13
2019-03-23T03:30:58.110Z,30.67
2019-03-23T03:33:28.143Z,30.93
2019-03-23T03:35:58.200Z,34.63
2019-03-23T03:38:28.302Z,31.10
2019-03-23T03:40:58.507Z,27.03
2019-03-23T03:43:28.564Z,35.67
2019-03-23T03:45:58.570Z,28.80
2019-03-23T03:48:28.635Z,31.87
2019-03-23T03:50:58.682Z,30.27
2019-03-23T03:53:28.738Z,23.07
2019-03-23T03:55:58.754Z,27.23
2019-03-23T03:58:28.837Z,23.17
2019-03-23T04:00:58.850Z,22.87
2019-03-23T04:03:28.918Z,22.23
2019-03-23T04:05:58.971Z,24.00
2019-03-23T04:08:29.062Z,20.90
2019-03-23T04:10:59.114Z,20.87
2019-03-23T04:13:29.135Z,16.80
2019-03-23T04:15:59.230Z,16.20
2019-03-23T04:18:29.253Z,16.17
2019-03-23T04:20:59.329Z,15.93
2019-03-23T04:23:29.339Z,15.93
2019-03-23T04:25:59.427Z,11.83
2019-03-23T04:28:29.476Z,14.13
2019-03-23T04:30:59.651Z,16.57
2019-03-23T04:33:29.697Z,15.10
2019-03-23T04:35:59.779Z,15.13
2019-03-23T04:38:31.285Z,14.27
2019-03-23T04:41:01.339Z,10.70
2019-03-23T04:43:31.410Z,15.37
2019-03-23T04:46:01.439Z,13.03
2019-03-23T04:48:31.498Z,16.90
2019-03-23T04:51:01.525Z,9.97
2019-03-23T04:53:31.613Z,12.63
2019-03-23T04:56:01.661Z,10.53
2019-03-23T04:58:31.696Z,16.30
2019-03-23T05:01:01.725Z,13.97
2019-03-23T05:03:31.810Z,16.00
2019-03-23T05:06:01.822Z,18.87
2019-03-23T05:08:33.504Z,14.13
2019-03-23T05:11:03.578Z,16.00
2019-03-23T05:13:33.602Z,17.40
2019-03-23T05:16:03.634Z,17.77
2019-03-23T05:18:33.688Z,17.17
2019-03-23T05:21:05.232Z,15.40
2019-03-23T05:23:35.266Z,23.27
2019-03-23T05:26:05.362Z,22.93
2019-03-23T05:28:35.394Z,21.80
2019-03-23T05:31:07.097Z,23.00
2019-03-23T05:33:37.294Z,22.10
2019-03-23T05:36:07.412Z,21.27
2019-03-23T05:38:44.271Z,31.23
2019-03-23T05:41:09.198Z,23.37
2019-03-23T05:43:39.222Z,24.17
2019-03-23T05:46:09.341Z,26.87
2019-03-23T05:48:39.352Z,32.60
2019-03-23T05:51:09.410Z,24.63
2019-03-23T05:53:39.448Z,29.93
2019-03-23T05:56:09.454Z,34.63
2019-03-23T05:58:39.529Z,60.80
2019-03-23T06:01:09.569Z,44.57
2019-03-23T06:03:39.658Z,50.83
2019-03-23T06:06:09.690Z,67.50
2019-03-23T06:08:39.830Z,69.70
2019-03-23T06:11:09.840Z,47.30
2019-03-23T06:13:39.950Z,53.27
2019-03-23T06:16:10.002Z,75.93
2019-03-23T06:18:40.105Z,62.33
2019-03-23T06:21:10.156Z,51.33
2019-03-23T06:23:40.154Z,82.13
2019-03-23T06:26:10.213Z,57.43
2019-03-23T06:28:40.258Z,77.30
2019-03-23T06:31:10.307Z,52.77
2019-03-23T06:33:40.323Z,67.03
2019-03-23T06:36:10.362Z,71.83
2019-03-23T06:38:40.465Z,68.90
2019-03-23T06:41:10.530Z,73.30
2019-03-23T06:43:40.601Z,64.27
2019-03-23T06:46:10.659Z,50.73
2019-03-23T06:48:40.739Z,72.77
2019-03-23T06:51:10.823Z,63.30
2019-03-23T06:53:40.878Z,68.23
2019-03-23T06:56:10.931Z,52.07
2019-03-23T06:58:41.032Z,57.47
2019-03-23T07:01:11.122Z,60.73
2019-03-23T07:03:41.193Z,69.97
2019-03-23T07:06:11.289Z,60.60
2019-03-23T07:08:41.332Z,62.20
2019-03-23T07:11:11.364Z,60.10
2019-03-23T07:13:41.440Z,60.17
2019-03-23T07:16:11.519Z,71.60
2019-03-23T07:18:41.621Z,64.57
2019-03-23T07:21:11.649Z,63.97
2019-03-23T07:23:41.714Z,70.17
2019-03-23T07:26:11.766Z,64.83
2019-03-23T07:28:41.797Z,67.17
2019-03-23T07:31:11.871Z,71.27
2019-03-23T07:33:41.913Z,59.80
2019-03-23T07:36:11.979Z,69.37
2019-03-23T07:38:42.087Z,73.80
2019-03-23T07:41:12.158Z,71.00
2019-03-23T07:43:42.183Z,67.60
2019-03-23T07:46:12.238Z,68.20
2019-03-23T07:48:42.573Z,63.27
2019-03-23T07:51:12.598Z,56.17
2019-03-23T07:53:42.674Z,60.87
2019-03-23T07:56:12.706Z,61.90
2019-03-23T07:58:42.765Z,73.17
2019-03-23T08:01:12.796Z,63.33
2019-03-23T08:03:42.810Z,53.77
2019-03-23T08:06:12.885Z,60.90
2019-03-23T08:08:42.959Z,58.47
2019-03-23T08:11:13.078Z,58.97
2019-03-23T08:13:43.147Z,62.67
2019-03-23T08:16:13.247Z,63.43
2019-03-23T08:18:43.314Z,72.20
2019-03-23T08:21:13.388Z,65.03
2019-03-23T08:23:43.450Z,71.23
2019-03-23T08:26:13.542Z,70.97
2019-03-23T08:28:43.630Z,65.60
2019-03-23T08:31:13.726Z,74.97
2019-03-23T08:33:43.798Z,73.20
2019-03-23T08:36:13.818Z,78.20
2019-03-23T08:38:43.839Z,80.13
2019-03-23T08:41:13.925Z,76.30
2019-03-23T08:43:44.010Z,62.57
2019-03-23T08:46:14.106Z,70.30
2019-03-23T08:48:44.127Z,62.37
2019-03-23T08:51:14.154Z,62.87
2019-03-23T08:53:44.187Z,64.20
2019-03-23T08:56:14.212Z,60.33
2019-03-23T08:58:42.047Z,58.97
2019-03-23T09:01:12.087Z,57.07
2019-03-23T09:03:51.959Z,63.53
2019-03-23T09:06:13.815Z,60.13
2019-03-23T09:08:43.866Z,60.10
2019-03-23T09:11:20.406Z,53.57
2019-03-23T09:13:45.612Z,51.10
2019-03-23T09:16:15.658Z,54.40
2019-03-23T09:18:45.835Z,50.03
2019-03-23T09:21:15.911Z,57.57
2019-03-23T09:23:45.934Z,54.47
2019-03-23T09:26:16.002Z,59.33
2019-03-23T09:28:46.058Z,50.27
2019-03-23T09:31:16.119Z,50.53
2019-03-23T09:33:46.192Z,56.17
2019-03-23T09:36:16.262Z,57.77
2019-03-23T09:38:46.338Z,53.53
2019-03-23T09:41:16.390Z,56.07
2019-03-23T09:43:46.443Z,55.40
2019-03-23T09:46:16.466Z,52.10
2019-03-23T09:48:46.569Z,62.90
2019-03-23T09:51:16.625Z,57.17
2019-03-23T09:53:46.636Z,56.07
2019-03-23T09:56:16.701Z,58.00
2019-03-23T09:58:46.877Z,58.83
2019-03-23T10:01:16.887Z,66.80
2019-03-23T10:03:46.939Z,57.10
2019-03-23T10:06:16.977Z,59.00
2019-03-23T10:08:47.085Z,65.00
2019-03-23T10:11:17.130Z,59.70
2019-03-23T10:13:47.191Z,63.90
2019-03-23T10:16:18.277Z,60.57
2019-03-23T10:18:48.599Z,51.57
2019-03-23T10:21:18.734Z,58.13
2019-03-23T10:23:48.860Z,69.97
2019-03-23T10:26:18.957Z,73.27
2019-03-23T10:28:49.049Z,63.47
2019-03-23T10:31:19.157Z,79.40
2019-03-23T10:33:49.441Z,66.10
2019-03-23T10:36:19.707Z,77.73
2019-03-23T10:38:49.876Z,69.37
2019-03-23T10:41:20.064Z,66.20
2019-03-23T10:43:50.360Z,71.77
2019-03-23T10:46:20.625Z,71.37
2019-03-23T10:48:50.732Z,63.53
2019-03-23T10:51:21.028Z,73.10
2019-03-23T10:53:51.132Z,65.83
2019-03-23T10:56:21.731Z,78.70
2019-03-23T10:58:51.916Z,68.90
2019-03-23T11:01:22.071Z,75.60
2019-03-23T11:03:52.277Z,82.20
2019-03-23T11:06:22.367Z,81.67
2019-03-23T11:08:52.527Z,82.73
2019-03-23T11:11:22.693Z,74.73
2019-03-23T11:13:52.843Z,81.57
2019-03-23T11:16:22.989Z,71.83
2019-03-23T11:18:53.093Z,75.00
2019-03-23T11:21:23.247Z,79.93
2019-03-23T11:23:53.401Z,80.77
2019-03-23T11:26:23.598Z,85.70
2019-03-23T11:28:53.794Z,88.67
2019-03-23T11:31:23.850Z,71.77
2019-03-23T11:33:54.067Z,75.30
2019-03-23T11:36:24.168Z,70.60
2019-03-23T11:38:54.501Z,78.03
2019-03-23T11:41:26.458Z,73.33
2019-03-23T11:43:56.661Z,74.10
2019-03-23T11:46:26.863Z,74.87
2019-03-23T11:48:57.090Z,78.43
2019-03-23T11:51:27.234Z,84.10
2019-03-23T11:53:57.225Z,68.47
2019-03-23T11:56:30.661Z,76.37
2019-03-23T11:58:59.111Z,74.43
2019-03-23T12:01:51.632Z,73.17
2019-03-23T12:04:19.657Z,73.90
2019-03-23T12:06:49.766Z,70.72
2019-03-23T12:09:19.789Z,70.77
2019-03-23T12:11:49.859Z,77.53
2019-03-23T12:14:19.944Z,73.37
2019-03-23T12:16:50.001Z,71.67
2019-03-23T12:19:20.098Z,75.97
2019-03-23T12:21:50.936Z,61.70
2019-03-23T12:24:20.959Z,63.03
2019-03-23T12:26:51.210Z,64.10
2019-03-23T12:29:21.365Z,65.23
2019-03-23T12:31:51.426Z,57.83
2019-03-23T12:34:21.472Z,60.80
2019-03-23T12:36:51.605Z,65.15
2019-03-23T12:39:21.614Z,62.85
2019-03-23T12:41:51.682Z,63.60
2019-03-23T12:44:21.740Z,67.15
2019-03-23T12:46:51.783Z,58.48
2019-03-23T12:49:21.850Z,59.13
2019-03-23T12:51:52.033Z,62.10
2019-03-23T12:54:22.273Z,57.90
2019-03-23T12:56:52.369Z,59.08
2019-03-23T12:59:22.498Z,63.65
2019-03-23T13:01:52.726Z,56.20
2019-03-23T13:04:23.035Z,57.10
2019-03-23T13:06:53.131Z,51.37
2019-03-23T13:09:23.246Z,55.08
2019-03-23T13:11:53.312Z,55.60
2019-03-23T13:14:23.395Z,51.15
2019-03-23T13:16:53.460Z,50.00
2019-03-23T13:19:23.565Z,56.20
2019-03-23T13:21:53.654Z,52.13
2019-03-23T13:24:23.666Z,50.70
2019-03-23T13:26:53.758Z,49.55
2019-03-23T13:29:23.818Z,46.30
2019-03-23T13:31:53.902Z,57.43
2019-03-23T13:34:23.967Z,59.85
2019-03-23T13:36:53.992Z,63.92
2019-03-23T13:39:24.012Z,62.05
2019-03-23T13:41:54.047Z,52.98
2019-03-23T13:44:24.125Z,60.25
2019-03-23T13:46:54.177Z,60.48
2019-03-23T13:49:24.248Z,65.28
2019-03-23T13:51:54.331Z,56.30
2019-03-23T13:54:24.370Z,57.60
2019-03-23T13:56:54.405Z,59.77
2019-03-23T13:59:24.453Z,69.27
2019-03-23T14:01:54.462Z,58.83
2019-03-23T14:04:24.524Z,68.90
2019-03-23T14:06:54.588Z,56.95
2019-03-23T14:09:24.626Z,59.98
2019-03-23T14:11:55.405Z,53.17
2019-03-23T14:14:25.471Z,58.05
2019-03-23T14:16:55.534Z,59.67
2019-03-23T14:19:25.604Z,55.52
2019-03-23T14:21:55.626Z,59.18
2019-03-23T14:24:25.629Z,49.40
2019-03-23T14:26:55.694Z,54.77
2019-03-23T14:29:25.730Z,55.17
2019-03-23T14:31:55.888Z,54.88
2019-03-23T14:34:25.920Z,66.22
2019-03-23T14:36:56.033Z,58.60
2019-03-23T14:39:26.141Z,58.28
2019-03-23T14:42:04.473Z,63.17
2019-03-23T14:44:27.999Z,60.55
2019-03-23T14:46:58.122Z,63.30
2019-03-23T14:49:28.177Z,55.03
2019-03-23T14:51:58.252Z,58.55
2019-03-23T14:54:28.271Z,57.10
2019-03-23T14:56:58.387Z,65.25
2019-03-23T14:59:28.453Z,56.92
2019-03-23T15:01:58.527Z,59.13
2019-03-23T15:04:28.643Z,59.53
2019-03-23T15:06:58.777Z,64.95
2019-03-23T15:09:28.919Z,58.80
2019-03-23T15:11:59.008Z,62.88
2019-03-23T15:14:29.090Z,58.42
2019-03-23T15:16:59.259Z,58.42
2019-03-23T15:19:29.267Z,55.92
2019-03-23T15:21:59.437Z,61.45
2019-03-23T15:24:29.516Z,49.25
2019-03-23T15:26:59.666Z,58.65
2019-03-23T15:29:29.777Z,57.10
2019-03-23T15:32:00.020Z,52.20
2019-03-23T15:34:30.035Z,56.65
2019-03-23T15:37:00.082Z,52.40
2019-03-23T15:39:30.178Z,51.35
2019-03-23T15:42:00.246Z,57.23
2019-03-23T15:44:30.400Z,55.15
2019-03-23T15:47:00.422Z,52.45
2019-03-23T15:49:30.559Z,55.05
2019-03-23T15:52:00.649Z,45.63
2019-03-23T15:54:30.703Z,55.55
2019-03-23T15:57:01.054Z,56.30
2019-03-23T16:05:42.459Z,50.12
2019-03-23T16:08:12.594Z,49.38
2019-03-23T16:10:42.807Z,55.63
2019-03-23T16:13:12.975Z,47.85
2019-03-23T16:15:43.041Z,46.00
2019-03-23T16:18:13.221Z,59.58
2019-03-23T16:20:43.310Z,54.73
2019-03-23T16:23:13.379Z,57.05
2019-03-23T16:25:43.451Z,49.85
2019-03-23T16:28:15.525Z,59.60
2019-03-23T16:30:46.893Z,56.23
2019-03-23T16:33:16.962Z,49.93
2019-03-23T16:35:49.294Z,54.93
2019-03-23T16:38:19.346Z,52.73
2019-03-23T16:40:49.595Z,53.70
2019-03-23T16:43:19.714Z,52.65
2019-03-23T16:45:49.762Z,50.55
2019-03-23T16:48:19.811Z,43.48
2019-03-23T16:50:49.871Z,49.10
2019-03-23T16:53:19.896Z,44.83
2019-03-23T16:55:49.968Z,50.30
2019-03-23T16:58:21.016Z,49.90
2019-03-23T17:00:51.014Z,51.63
2019-03-23T17:03:21.620Z,47.62
2019-03-23T17:05:51.719Z,54.75
2019-03-23T17:08:21.737Z,50.45
2019-03-23T17:10:51.829Z,52.27
2019-03-23T17:13:21.810Z,58.90
2019-03-23T17:15:51.884Z,51.00
2019-03-23T17:18:21.976Z,42.25
2019-03-23T17:20:52.094Z,54.70
2019-03-23T17:23:22.127Z,45.80
2019-03-23T17:25:52.178Z,59.08
2019-03-23T17:28:22.374Z,52.83
2019-03-23T17:30:52.411Z,52.93
2019-03-23T17:33:22.493Z,54.18
2019-03-23T17:35:52.513Z,57.27
2019-03-23T17:38:22.562Z,53.30
2019-03-23T17:40:52.658Z,47.43
2019-03-23T17:43:22.742Z,52.20
2019-03-23T17:45:52.793Z,48.85
2019-03-23T17:48:22.830Z,51.48
2019-03-23T17:50:54.150Z,55.60
2019-03-23T17:53:24.166Z,53.55
2019-03-23T17:55:54.266Z,50.98
2019-03-23T17:58:24.316Z,43.63
2019-03-23T18:00:56.533Z,54.00
2019-03-23T18:03:26.593Z,50.60
2019-03-23T18:05:56.620Z,44.42
2019-03-23T18:08:26.658Z,52.10
2019-03-23T18:10:56.685Z,48.17
2019-03-23T18:13:26.727Z,48.80
2019-03-23T18:15:56.859Z,48.92
2019-03-23T18:18:26.930Z,51.00
2019-03-23T18:20:56.957Z,55.00
2019-03-23T18:23:26.975Z,52.55
2019-03-23T18:25:57.058Z,55.27
2019-03-23T18:28:27.130Z,57.98
2019-03-23T18:30:57.143Z,52.45
2019-03-23T18:33:27.186Z,49.90
2019-03-23T18:35:57.200Z,50.55
2019-03-23T18:38:27.230Z,49.75
2019-03-23T18:40:57.251Z,55.33
2019-03-23T18:43:27.990Z,54.47
2019-03-23T18:45:58.090Z,58.30
2019-03-23T18:48:28.103Z,57.33
2019-03-23T18:50:58.146Z,60.70
2019-03-23T18:53:28.159Z,62.38
2019-03-23T18:55:58.241Z,52.17
2019-03-23T18:58:28.251Z,59.87
2019-03-23T19:01:00.645Z,54.05
2019-03-23T19:03:30.694Z,53.87
2019-03-23T19:06:00.712Z,54.00
2019-03-23T19:08:30.776Z,56.77
2019-03-23T19:11:01.073Z,48.73
2019-03-23T19:13:37.761Z,53.20
2019-03-23T19:16:02.789Z,49.10
2019-03-23T19:18:32.862Z,50.80
2019-03-23T19:21:02.901Z,52.87
2019-03-23T19:23:34.540Z,48.17
2019-03-23T19:26:04.754Z,46.30
2019-03-23T19:28:34.838Z,53.00
2019-03-23T19:31:04.869Z,50.77
2019-03-23T19:33:34.971Z,46.47
2019-03-23T19:36:07.106Z,50.33
2019-03-23T19:38:37.184Z,44.77
2019-03-23T19:41:07.233Z,49.20
2019-03-23T19:43:47.838Z,48.13
2019-03-23T19:46:09.014Z,44.40
2019-03-23T19:48:39.193Z,45.50
2019-03-23T19:51:09.241Z,50.97
2019-03-23T19:53:39.293Z,50.00
2019-03-23T19:56:11.423Z,43.20
2019-03-23T19:58:41.527Z,44.57
2019-03-23T20:01:11.585Z,43.67
2019-03-23T20:03:41.654Z,36.73
2019-03-23T20:06:11.745Z,52.80
2019-03-23T20:08:42.788Z,44.33
2019-03-23T20:11:12.953Z,47.03
2019-03-23T20:13:43.042Z,40.27
2019-03-23T20:16:13.078Z,48.00
2019-03-23T20:18:43.125Z,43.43
2019-03-23T20:21:14.105Z,45.30
2019-03-23T20:23:46.962Z,44.10
2019-03-23T20:26:17.009Z,42.40
2019-03-23T20:28:47.102Z,42.10
2019-03-23T20:31:17.211Z,44.53
2019-03-23T20:33:47.227Z,49.63
2019-03-23T20:36:17.286Z,40.00
2019-03-23T20:38:47.339Z,40.37
2019-03-23T20:41:17.362Z,50.00
2019-03-23T20:43:47.445Z,43.73
2019-03-23T20:46:17.517Z,49.80
2019-03-23T20:48:47.579Z,43.37
2019-03-23T20:51:18.125Z,41.67
2019-03-23T20:53:48.194Z,46.00
2019-03-23T20:56:19.441Z,48.43
2019-03-23T20:58:49.451Z,43.87
2019-03-23T21:01:19.533Z,44.43
2019-03-23T21:03:49.600Z,47.13
2019-03-23T21:06:19.607Z,38.23
2019-03-23T21:08:49.670Z,37.97
2019-03-23T21:11:19.732Z,42.07
2019-03-23T21:13:49.777Z,42.87
2019-03-23T21:16:19.806Z,47.53
2019-03-23T21:18:49.818Z,43.47
2019-03-23T21:21:19.893Z,47.83
2019-03-23T21:23:52.007Z,38.67
2019-03-23T21:26:21.602Z,49.27
2019-03-23T21:28:51.635Z,47.77
2019-03-23T21:31:21.698Z,44.63
2019-03-23T21:33:51.749Z,52.97
2019-03-23T21:36:21.754Z,51.60
2019-03-23T21:38:51.813Z,50.43
2019-03-23T21:41:21.907Z,54.67
2019-03-23T21:43:51.919Z,51.37
2019-03-23T21:46:21.955Z,54.60
2019-03-23T21:48:52.022Z,55.93
2019-03-23T21:51:22.060Z,47.70
2019-03-23T21:53:52.138Z,46.27
2019-03-23T21:56:22.252Z,43.10
2019-03-23T21:58:52.278Z,47.47
2019-03-23T22:01:24.649Z,55.80
2019-03-23T22:03:54.781Z,47.57
2019-03-23T22:06:24.818Z,49.27
2019-03-23T22:08:54.839Z,47.07
2019-03-23T22:11:24.910Z,49.50
2019-03-23T22:13:54.947Z,49.43
2019-03-23T22:16:31.290Z,45.37
2019-03-23T22:19:46.712Z,52.97
2019-03-23T22:22:43.418Z,39.20
2019-03-23T22:25:45.182Z,39.77
2019-03-23T22:31:44.559Z,52.07
2019-03-23T22:34:42.756Z,48.87
2019-03-23T22:37:23.963Z,45.33
2019-03-23T22:40:03.502Z,42.73
2019-03-23T23:01:22.705Z,28.83
2019-03-23T23:03:52.723Z,34.10
2019-03-23T23:06:22.761Z,32.90
2019-03-23T23:08:52.787Z,28.77
2019-03-23T23:11:22.789Z,33.00
2019-03-23T23:13:52.849Z,36.40
2019-03-23T23:16:22.883Z,31.30
2019-03-23T23:18:52.950Z,32.00
2019-03-23T23:21:26.224Z,32.30
2019-03-23T23:23:56.281Z,25.97
2019-03-23T23:26:26.266Z,26.87
2019-03-23T23:28:56.307Z,29.53
2019-03-23T23:31:26.319Z,26.17
2019-03-23T23:33:56.358Z,26.27
2019-03-23T23:36:28.650Z,25.37
2019-03-23T23:38:58.690Z,23.93
2019-03-23T23:41:28.774Z,27.83
2019-03-23T23:43:58.790Z,22.60
2019-03-23T23:46:28.858Z,23.40
2019-03-23T23:48:58.902Z,20.13
2019-03-23T23:51:28.943Z,25.70
2019-03-23T23:53:59.009Z,24.03
2019-03-23T23:56:31.376Z,22.87
2019-03-23T23:59:01.399Z,19.07
